Terminal Aerodrome Forecast
Issued by NWS Tallahassee, FL

Home | Current Version | Previous Version | Text Only | Print | Product List | Glossary On
Versions: 1 2 3 4 5 6 7 8 9 10 11 12 13
567
FTUS42 KTAE 232320
TAFTLH
TAF
KTLH 232320Z 2400/2424 24009KT P6SM -SHRA BKN020
     FM240200 32005KT P6SM FEW030 SCT050
     FM241100 30005KT P6SM BKN030
     FM241500 29010KT P6SM BKN045=

USA.gov is the U.S. government's official web portal to all federal, state and local government web resources and services.